CheckWX is a tool to help pilots better visualize weather data.  It is not intended as a substitute for an official pre-flight weather briefing.

02:35:01 UTC

KLOZ TAF
London-Corbin Arpt-Magee Field Airport
London, Kentucky, USA
KLOZ 222332Z 2300/2324 VRB03KT P6SM FEW250 FM231400 23006KT P6SM FEW250 FM232000 25010KT P6SM SCT200 BKN250

Apr-23@
00:00 UTC

Apr-23 @ 00:00 UTC

Apr-23@
14:00 UTC

Apr-23 @ 14:00 UTC

KLOZ 222332Z 2300/2324 VRB03KT P6SM FEW250
Wind
  • Variable at 3 KTS
Cloud Levels
  • Few at 25,000' AGL

Apr-23@
14:00 UTC

Apr-23 @ 14:00 UTC

Apr-23@
20:00 UTC

Apr-23 @ 20:00 UTC

FM231400 23006KT P6SM FEW250

From

From Standard forecast or significant change

Wind
  • 230° at 6 KTS
Cloud Levels
  • Few at 25,000' AGL

Apr-23@
20:00 UTC

Apr-23 @ 20:00 UTC

Apr-24@
00:00 UTC

Apr-24 @ 00:00 UTC

FM232000 25010KT P6SM SCT200 BKN250

From

From Standard forecast or significant change

Wind
  • 250° at 10 KTS
Cloud Levels
  • Scattered at 20,000' AGL
  • Broken at 25,000' AGL